Time;durP1;ratioP1;P1;durP2;ratioP2;P2;SDS_P1;SDS_P2;PMS_P1;PMS_P2;Temp;Humidity;BMP_temperature;BMP_pressure;BME280_temperature;BME280_humidity;BME280_pressure;Samples;Min_cycle;Max_cycle;Signal;HPM_P1;HPM_P2
2022/04/24 00:00:55;;;;;;;;;;;;;;;21.39;34.21;93707.88;10427218;28;1971;-57
2022/04/24 00:05:55;;;;;;;;;;;;;;;21.35;34.34;93710.38;10423703;28;1810;-58
2022/04/24 00:10:55;;;;;;;;;;;;;;;21.36;34.07;93690.06;10411296;28;1859;-53
2022/04/24 00:15:56;;;;;;;;;;;;;;;21.36;34.19;93682.16;10428449;28;1797;-57
2022/04/24 00:20:56;;;;;;;;;;;;;;;21.36;34.31;93675.03;10427447;28;1906;-53
2022/04/24 00:25:56;;;;;;;;;;;;;;;21.34;34.28;93665.91;10423202;28;1842;-56
2022/04/24 00:30:57;;;;;;;;;;;;;;;21.37;34.26;93665.25;10420317;28;1922;-58
2022/04/24 00:35:58;;;;;;;;;;;;;;;21.35;34.00;93656.91;10415213;28;1992;-58
2022/04/24 00:40:58;;;;;;;;;;;;;;;21.37;34.14;93665.25;10425350;28;1913;-57
2022/04/24 00:46:19;;;;;;;;;;;;;;;21.35;34.02;93662.94;10419575;28;2287;-55
2022/04/24 00:51:19;;;;;;;;;;;;;;;21.37;33.87;93649.44;10406876;28;1928;-57
2022/04/24 00:56:19;;;;;;;;;;;;;;;21.35;33.87;93647.13;10429071;28;1980;-57
2022/04/24 01:01:21;;;;;;;;;;;;;;;21.35;33.89;93649.00;10421869;28;1857;-57
2022/04/24 01:06:21;;;;;;;;;;;;;;;21.37;33.98;93623.09;10428700;28;2023;-55
2022/04/24 01:11:21;;;;;;;;;;;;;;;21.35;33.84;93606.84;10431714;28;1991;-53
2022/04/24 01:16:23;;;;;;;;;;;;;;;21.34;34.00;93608.69;10431625;28;2257;-56
2022/04/24 01:21:23;;;;;;;;;;;;;;;21.37;33.70;93604.63;10430689;28;1914;-56
2022/04/24 01:26:24;;;;;;;;;;;;;;;21.34;33.70;93608.69;10438930;28;1858;-56
2022/04/24 01:31:25;;;;;;;;;;;;;;;21.34;33.96;93598.16;10443833;22;2295;-48
2022/04/24 01:36:25;;;;;;;;;;;;;;;21.36;33.59;93592.53;10430348;28;1985;-53
2022/04/24 01:41:26;;;;;;;;;;;;;;;21.37;33.71;93604.63;10396942;28;1891;-47
2022/04/24 01:46:26;;;;;;;;;;;;;;;21.36;33.80;93603.09;10396351;28;1950;-49
2022/04/24 01:51:26;;;;;;;;;;;;;;;21.36;33.89;93605.72;10393807;28;2002;-48
2022/04/24 01:56:27;;;;;;;;;;;;;;;21.35;33.73;93596.28;10394269;28;1906;-49
2022/04/24 02:01:28;;;;;;;;;;;;;;;21.35;33.78;93599.69;10391395;28;1847;-50
2022/04/24 02:06:28;;;;;;;;;;;;;;;21.37;33.87;93591.47;10387959;28;1875;-48
2022/04/24 02:11:28;;;;;;;;;;;;;;;21.36;33.72;93582.78;10393782;28;1931;-48
2022/04/24 02:16:30;;;;;;;;;;;;;;;21.36;33.71;93585.41;10398764;28;1932;-53
2022/04/24 02:21:31;;;;;;;;;;;;;;;21.36;33.63;93595.19;10394456;28;1938;-49
2022/04/24 02:26:31;;;;;;;;;;;;;;;21.36;33.37;93584.63;10393922;28;2109;-49
2022/04/24 02:31:32;;;;;;;;;;;;;;;21.37;33.45;93591.47;10391972;28;2005;-49
2022/04/24 02:36:32;;;;;;;;;;;;;;;21.37;33.48;93604.63;10395773;28;1969;-52
2022/04/24 02:41:32;;;;;;;;;;;;;;;21.37;33.58;93602.75;10397166;28;1870;-49
2022/04/24 02:46:33;;;;;;;;;;;;;;;21.37;33.43;93607.28;10391814;28;1969;-49
2022/04/24 02:51:34;;;;;;;;;;;;;;;21.35;33.57;93614.75;10392983;28;1855;-52
2022/04/24 02:56:35;;;;;;;;;;;;;;;21.35;33.45;93606.84;10393969;28;2687;-51
2022/04/24 03:01:35;;;;;;;;;;;;;;;21.35;33.59;93610.22;10388337;28;1823;-51
2022/04/24 03:06:35;;;;;;;;;;;;;;;21.35;33.37;93591.78;10390800;28;1839;-48
2022/04/24 03:11:36;;;;;;;;;;;;;;;21.36;33.54;93579.38;10368363;28;1852;-51
2022/04/24 03:16:36;;;;;;;;;;;;;;;21.35;33.54;93583.13;10390077;28;1981;-50
2022/04/24 03:21:36;;;;;;;;;;;;;;;21.35;33.54;93591.78;10388253;28;1813;-50
2022/04/24 03:26:37;;;;;;;;;;;;;;;21.36;33.43;93622.31;10389522;28;1803;-49
2022/04/24 03:31:37;;;;;;;;;;;;;;;21.38;33.36;93709.72;10386400;28;2029;-48
2022/04/24 03:36:37;;;;;;;;;;;;;;;21.36;33.58;93738.28;10386606;28;1941;-53
2022/04/24 03:41:37;;;;;;;;;;;;;;;21.37;33.57;93712.69;10385735;28;1842;-48
2022/04/24 03:46:38;;;;;;;;;;;;;;;21.37;33.18;93723.97;10390419;28;1792;-47
2022/04/24 03:51:38;;;;;;;;;;;;;;;21.36;33.25;93705.88;10382348;28;2279;-48
2022/04/24 03:56:39;;;;;;;;;;;;;;;21.37;33.24;93699.50;10382574;28;1968;-47
2022/04/24 04:01:39;;;;;;;;;;;;;;;21.35;33.10;93697.19;10383228;28;2029;-49
2022/04/24 04:06:40;;;;;;;;;;;;;;;21.35;33.14;93696.44;10383384;28;1831;-47
2022/04/24 04:11:40;;;;;;;;;;;;;;;21.38;33.20;93695.78;10384794;28;2032;-49
2022/04/24 04:16:40;;;;;;;;;;;;;;;21.35;33.26;93709.63;10390980;28;1902;-48
2022/04/24 04:21:42;;;;;;;;;;;;;;;21.36;33.29;93713.78;10381265;28;1800;-49
2022/04/24 04:26:44;;;;;;;;;;;;;;;21.40;33.02;93730.47;10383523;28;1796;-47
2022/04/24 04:31:45;;;;;;;;;;;;;;;21.44;33.49;93736.63;10385398;28;1769;-47
2022/04/24 04:36:46;;;;;;;;;;;;;;;21.39;33.57;93736.84;10386991;28;1914;-49
2022/04/24 04:41:46;;;;;;;;;;;;;;;21.43;33.38;93756.19;10390929;28;1789;-51
2022/04/24 04:46:47;;;;;;;;;;;;;;;21.41;34.20;93774.19;10390811;28;2271;-48
2022/04/24 04:51:47;;;;;;;;;;;;;;;21.43;34.59;93787.81;10376143;28;1781;-50
2022/04/24 04:56:48;;;;;;;;;;;;;;;21.42;35.02;93797.59;10391134;28;2005;-51
2022/04/24 05:01:48;;;;;;;;;;;;;;;21.45;34.76;93790.91;10389431;28;1968;-48
2022/04/24 05:06:49;;;;;;;;;;;;;;;21.44;34.55;93798.03;10394576;28;1870;-47
2022/04/24 05:11:50;;;;;;;;;;;;;;;21.41;34.53;93805.81;10389950;28;1812;-48
2022/04/24 05:16:51;;;;;;;;;;;;;;;21.41;34.79;93826.91;10392930;28;1918;-47
2022/04/24 05:21:54;;;;;;;;;;;;;;;21.39;34.78;93831.75;10384627;28;1864;-54
2022/04/24 05:26:54;;;;;;;;;;;;;;;21.38;34.78;93835.47;10395408;28;2560;-51
2022/04/24 05:31:55;;;;;;;;;;;;;;;21.37;34.92;93855.00;10388849;28;1805;-52
2022/04/24 05:36:55;;;;;;;;;;;;;;;21.39;34.86;93866.75;10389125;28;2364;-50
2022/04/24 05:41:56;;;;;;;;;;;;;;;21.36;35.11;93856.09;10388705;28;1848;-50
2022/04/24 05:46:57;;;;;;;;;;;;;;;21.37;34.84;93855.00;10389451;28;2014;-49
2022/04/24 05:51:57;;;;;;;;;;;;;;;21.38;34.83;93872.34;10392351;28;2009;-48
2022/04/24 05:56:57;;;;;;;;;;;;;;;21.37;34.87;93884.00;10391211;28;1981;-48
2022/04/24 06:01:58;;;;;;;;;;;;;;;21.36;35.05;93890.34;10389591;28;1859;-51
2022/04/24 06:06:58;;;;;;;;;;;;;;;21.36;34.74;93877.19;10387240;28;1903;-47
2022/04/24 06:12:00;;;;;;;;;;;;;;;21.38;34.83;93882.91;10383541;28;1816;-53
2022/04/24 06:17:00;;;;;;;;;;;;;;;21.37;34.92;93887.38;10387320;28;2025;-52
2022/04/24 06:22:01;;;;;;;;;;;;;;;21.38;34.65;93875.00;10386579;28;1812;-49
2022/04/24 06:27:01;;;;;;;;;;;;;;;21.37;34.61;93879.47;10387263;28;1836;-51
2022/04/24 06:32:04;;;;;;;;;;;;;;;21.37;34.51;93889.28;10384867;28;1974;-48
2022/04/24 06:37:04;;;;;;;;;;;;;;;21.37;34.63;93892.66;10387263;28;2093;-50
2022/04/24 06:42:05;;;;;;;;;;;;;;;21.36;34.70;93895.63;10385586;28;1820;-49
2022/04/24 06:47:06;;;;;;;;;;;;;;;21.37;34.73;93897.19;10390692;28;1839;-47
2022/04/24 06:52:07;;;;;;;;;;;;;;;21.36;34.45;93901.69;10367877;28;2053;-47
2022/04/24 06:57:07;;;;;;;;;;;;;;;21.37;34.47;93907.72;10387322;28;1973;-49
2022/04/24 07:02:07;;;;;;;;;;;;;;;21.38;34.23;93914.53;10391953;28;1804;-50
2022/04/24 07:07:07;;;;;;;;;;;;;;;21.37;34.50;93915.63;10386789;28;1913;-50
2022/04/24 07:12:08;;;;;;;;;;;;;;;21.42;34.04;93913.56;10380451;28;2500;-49
2022/04/24 07:17:09;;;;;;;;;;;;;;;21.41;34.48;93917.28;10390739;28;1914;-47
2022/04/24 07:22:09;;;;;;;;;;;;;;;21.39;34.44;93916.09;10380103;28;1800;-49
2022/04/24 07:27:10;;;;;;;;;;;;;;;21.42;34.41;93912.78;10393225;28;1919;-50
2022/04/24 07:32:10;;;;;;;;;;;;;;;21.45;34.32;93927.97;10402931;22;3714;-59
2022/04/24 07:37:10;;;;;;;;;;;;;;;21.41;34.56;93934.97;10386145;28;1983;-54
2022/04/24 07:42:11;;;;;;;;;;;;;;;21.39;35.00;93937.91;10391577;28;1807;-59
2022/04/24 07:47:12;;;;;;;;;;;;;;;21.41;34.90;93941.00;10406728;28;1791;-57
2022/04/24 07:52:13;;;;;;;;;;;;;;;21.41;34.87;93948.91;10399326;28;1808;-58
2022/04/24 07:57:14;;;;;;;;;;;;;;;21.38;35.06;93968.00;10395648;28;1968;-58
2022/04/24 08:02:14;;;;;;;;;;;;;;;21.38;35.28;93970.66;10381107;28;1752;-57
2022/04/24 08:07:15;;;;;;;;;;;;;;;21.36;34.78;93990.50;10386441;28;1859;-55
2022/04/24 08:12:15;;;;;;;;;;;;;;;21.44;34.82;93997.59;10373517;28;1859;-53
2022/04/24 08:17:16;;;;;;;;;;;;;;;21.48;35.06;94015.09;10400478;28;1962;-54
2022/04/24 08:22:16;;;;;;;;;;;;;;;21.43;35.22;94011.88;10380043;28;1800;-52
2022/04/24 08:27:18;;;;;;;;;;;;;;;21.42;35.46;94021.63;10398874;28;1802;-55
2022/04/24 08:32:21;;;;;;;;;;;;;;;21.36;34.78;94033.47;10373216;28;1850;-57
2022/04/24 08:37:23;;;;;;;;;;;;;;;20.96;34.38;94038.28;10390601;28;1910;-56
2022/04/24 08:42:23;;;;;;;;;;;;;;;21.02;34.93;94046.78;10379722;28;1879;-55
2022/04/24 08:47:24;;;;;;;;;;;;;;;21.16;35.21;94044.72;10404268;28;1791;-56
2022/04/24 08:52:25;;;;;;;;;;;;;;;21.21;35.29;94055.06;10378809;28;1787;-54
2022/04/24 08:57:30;;;;;;;;;;;;;;;21.33;35.28;94054.41;10388528;28;2754;-53
2022/04/24 09:02:30;;;;;;;;;;;;;;;21.34;35.14;94054.09;10401848;28;1839;-56
2022/04/24 09:07:31;;;;;;;;;;;;;;;21.37;35.12;94063.22;10406108;28;1823;-54
2022/04/24 09:12:32;;;;;;;;;;;;;;;21.40;35.17;94054.66;10386749;28;1844;-58
2022/04/24 09:17:33;;;;;;;;;;;;;;;21.42;35.11;94060.41;10388125;28;1914;-53
2022/04/24 09:22:38;;;;;;;;;;;;;;;21.48;34.80;94061.75;10377803;28;1779;-57
2022/04/24 09:27:38;;;;;;;;;;;;;;;21.42;35.01;94069.09;10381429;28;1790;-57
2022/04/24 09:32:49;;;;;;;;;;;;;;;20.48;33.54;94056.25;10395309;28;1875;-56
2022/04/24 09:37:49;;;;;;;;;;;;;;;19.55;33.56;94052.53;10384077;28;1910;-55
2022/04/24 09:42:56;;;;;;;;;;;;;;;19.21;34.11;94070.78;10380038;28;1824;-57
2022/04/24 09:47:58;;;;;;;;;;;;;;;18.97;34.36;94065.16;10374471;28;1773;-56
2022/04/24 09:52:58;;;;;;;;;;;;;;;18.73;35.07;94080.50;10368259;28;1803;-57
2022/04/24 09:57:58;;;;;;;;;;;;;;;18.43;34.53;94079.34;10394198;28;1913;-56
2022/04/24 10:02:59;;;;;;;;;;;;;;;18.05;34.02;94086.03;10363834;28;1795;-56
2022/04/24 10:07:59;;;;;;;;;;;;;;;18.08;34.47;94078.34;10384637;28;1788;-57
2022/04/24 10:13:00;;;;;;;;;;;;;;;18.07;34.60;94078.66;10402092;28;2003;-58
2022/04/24 10:18:02;;;;;;;;;;;;;;;18.39;34.57;94073.16;10400545;28;2201;-57
2022/04/24 10:23:02;;;;;;;;;;;;;;;18.76;34.90;94074.63;10393853;28;2181;-58
2022/04/24 10:28:11;;;;;;;;;;;;;;;19.22;34.47;94075.75;10388014;28;1997;-56
2022/04/24 10:33:22;;;;;;;;;;;;;;;19.56;34.23;94076.97;10388221;28;2386;-57
2022/04/24 10:38:23;;;;;;;;;;;;;;;19.85;34.16;94077.91;10408124;28;1902;-56
2022/04/24 10:43:24;;;;;;;;;;;;;;;20.06;34.02;94072.81;10377875;28;2423;-56
2022/04/24 10:48:30;;;;;;;;;;;;;;;20.25;34.09;94068.81;10379788;28;1765;-58
2022/04/24 10:53:47;;;;;;;;;;;;;;;20.42;33.97;94068.03;10382675;28;1862;-55
2022/04/24 10:58:50;;;;;;;;;;;;;;;20.59;34.04;94072.44;10381779;28;1914;-55
2022/04/24 11:03:50;;;;;;;;;;;;;;;20.74;34.04;94074.59;10397953;28;1819;-57
2022/04/24 11:08:51;;;;;;;;;;;;;;;20.87;34.06;94084.94;10400483;28;1831;-54
2022/04/24 11:13:52;;;;;;;;;;;;;;;20.96;34.03;94095.44;10395181;28;1997;-55
2022/04/24 11:18:52;;;;;;;;;;;;;;;21.06;33.98;94109.06;10405330;28;1906;-61
2022/04/24 11:23:57;;;;;;;;;;;;;;;21.13;34.21;94110.44;10400834;28;1718;-53
2022/04/24 11:29:07;;;;;;;;;;;;;;;21.22;34.13;94111.19;10369103;28;1900;-53
2022/04/24 11:34:07;;;;;;;;;;;;;;;21.25;33.92;94123.72;10367030;28;2006;-55
2022/04/24 11:39:07;;;;;;;;;;;;;;;21.23;34.12;94131.16;10386503;28;1902;-55
2022/04/24 11:54:47;;;;;;;;;;;;;;;21.23;33.99;94144.34;10370906;28;2503;-55
2022/04/24 11:59:55;;;;;;;;;;;;;;;21.24;33.85;94141.41;10368402;28;1962;-57
2022/04/24 12:04:58;;;;;;;;;;;;;;;21.21;34.25;94146.53;10380272;28;1982;-57
2022/04/24 12:09:59;;;;;;;;;;;;;;;21.19;34.33;94167.16;10390273;28;1930;-56
2022/04/24 12:15:01;;;;;;;;;;;;;;;21.19;34.29;94153.97;10396383;28;1780;-54
2022/04/24 12:20:03;;;;;;;;;;;;;;;21.25;34.25;94152.72;10393661;28;2000;-54
2022/04/24 12:25:10;;;;;;;;;;;;;;;21.28;34.39;94154.72;10393362;28;1571;-56
2022/04/24 12:30:10;;;;;;;;;;;;;;;21.25;34.75;94152.72;10386306;28;1651;-55
2022/04/24 12:35:27;;;;;;;;;;;;;;;21.28;34.92;94149.47;10389757;28;1323;-55
2022/04/24 12:40:27;;;;;;;;;;;;;;;21.24;34.93;94148.53;10375493;28;1906;-55
2022/04/24 12:45:28;;;;;;;;;;;;;;;21.33;35.03;94149.28;10372379;28;1433;-58
2022/04/24 12:50:28;;;;;;;;;;;;;;;21.24;34.90;94144.06;10393232;28;1410;-56
2022/04/24 12:55:29;;;;;;;;;;;;;;;21.31;34.78;94143.56;10380514;28;1442;-55
2022/04/24 13:00:30;;;;;;;;;;;;;;;21.21;34.86;94147.31;10388705;28;1977;-56
2022/04/24 13:05:30;;;;;;;;;;;;;;;21.21;35.13;94136.75;10404623;28;1465;-54
2022/04/24 13:10:30;;;;;;;;;;;;;;;21.25;35.39;94147.44;10381797;28;1442;-54
2022/04/24 13:15:33;;;;;;;;;;;;;;;21.27;35.10;94146.03;10400444;28;1545;-55
2022/04/24 13:20:38;;;;;;;;;;;;;;;21.22;35.09;94138.31;10402834;28;1902;-56
2022/04/24 13:25:39;;;;;;;;;;;;;;;21.17;35.57;94141.13;10386558;28;1427;-55
2022/04/24 13:30:39;;;;;;;;;;;;;;;21.20;35.45;94145.00;10396494;28;1416;-55
2022/04/24 13:35:40;;;;;;;;;;;;;;;21.15;35.67;94145.16;10410796;28;1271;-56
2022/04/24 13:40:40;;;;;;;;;;;;;;;21.14;35.48;94156.78;10447967;22;2401;-45
2022/04/24 13:45:40;;;;;;;;;;;;;;;21.20;35.21;94158.16;10487470;28;2117;-45
2022/04/24 13:50:41;;;;;;;;;;;;;;;21.16;35.74;94159.88;10492236;28;1486;-50
2022/04/24 13:55:41;;;;;;;;;;;;;;;21.17;35.67;94159.56;10485513;28;1449;-46
2022/04/24 14:00:42;;;;;;;;;;;;;;;21.20;35.52;94166.84;10481638;28;1953;-45
2022/04/24 14:05:42;;;;;;;;;;;;;;;21.26;35.32;94164.81;10494686;28;1577;-48
2022/04/24 14:10:48;;;;;;;;;;;;;;;21.25;35.22;94163.25;10495265;28;1761;-49
2022/04/24 14:15:48;;;;;;;;;;;;;;;21.21;35.04;94164.97;10480813;28;1791;-47
2022/04/24 14:20:48;;;;;;;;;;;;;;;21.24;35.13;94161.72;10479714;28;1969;-46
2022/04/24 14:25:49;;;;;;;;;;;;;;;21.35;34.91;94165.56;10496626;28;1792;-46
2022/04/24 14:30:50;;;;;;;;;;;;;;;21.38;34.99;94167.56;10488909;28;1919;-46
2022/04/24 14:35:52;;;;;;;;;;;;;;;21.25;34.92;94174.56;10488071;28;1886;-48
2022/04/24 14:40:53;;;;;;;;;;;;;;;21.26;35.09;94175.34;10500391;28;1902;-48
2022/04/24 14:56:32;;;;;;;;;;;;;;;21.34;34.96;94203.53;10482773;28;2286;-50
2022/04/24 15:01:32;;;;;;;;;;;;;;;21.30;35.23;94194.72;10486855;28;1906;-50
2022/04/24 15:06:32;;;;;;;;;;;;;;;21.22;35.08;94196.31;10479696;28;1789;-47
2022/04/24 15:11:33;;;;;;;;;;;;;;;21.21;35.07;94189.47;10481570;28;1888;-47
2022/04/24 15:16:34;;;;;;;;;;;;;;;21.17;35.11;94199.09;10480854;28;1808;-48
2022/04/24 15:21:35;;;;;;;;;;;;;;;21.22;34.78;94198.94;10486326;28;1956;-47
2022/04/24 15:26:36;;;;;;;;;;;;;;;21.15;34.94;94200.47;10484691;28;1840;-50
2022/04/24 15:31:37;;;;;;;;;;;;;;;21.18;34.81;94197.22;10475665;28;2008;-48
2022/04/24 15:36:37;;;;;;;;;;;;;;;21.19;34.87;94190.88;10475767;28;2391;-48
2022/04/24 15:41:38;;;;;;;;;;;;;;;21.35;34.87;94190.03;10495861;28;1976;-49
2022/04/24 15:46:38;;;;;;;;;;;;;;;21.36;35.28;94191.59;10494393;28;2373;-51
2022/04/24 15:51:38;;;;;;;;;;;;;;;21.31;35.44;94204.19;10491872;28;1784;-47
2022/04/24 15:56:40;;;;;;;;;;;;;;;21.33;35.21;94207.28;10489697;28;1967;-46
2022/04/24 16:01:40;;;;;;;;;;;;;;;21.25;35.00;94200.16;10487925;28;1879;-45
2022/04/24 16:06:41;;;;;;;;;;;;;;;21.25;35.31;94205.41;10479452;28;2339;-50
2022/04/24 16:11:41;;;;;;;;;;;;;;;21.24;35.17;94201.25;10487722;28;1796;-52
2022/04/24 16:16:42;;;;;;;;;;;;;;;21.21;35.00;94207.91;10482075;28;1971;-49
2022/04/24 16:21:42;;;;;;;;;;;;;;;21.20;34.95;94201.09;10477082;28;1784;-44
2022/04/24 16:26:44;;;;;;;;;;;;;;;21.18;34.73;94207.78;10491931;28;1858;-48
2022/04/24 16:31:46;;;;;;;;;;;;;;;21.17;34.81;94203.56;10483597;28;1788;-46
2022/04/24 16:36:47;;;;;;;;;;;;;;;21.14;34.81;94201.59;10474302;28;2145;-50
2022/04/24 16:41:48;;;;;;;;;;;;;;;21.13;34.69;94208.72;10489993;28;1821;-48
2022/04/24 16:46:48;;;;;;;;;;;;;;;21.10;34.68;94213.84;10479802;28;1856;-47
2022/04/24 17:02:27;;;;;;;;;;;;;;;21.08;34.20;94216.78;10484733;28;1915;-49
2022/04/24 17:07:28;;;;;;;;;;;;;;;21.12;34.76;94217.72;10491079;28;1768;-52
2022/04/24 17:12:29;;;;;;;;;;;;;;;21.19;34.69;94225.91;10483799;28;1789;-45
2022/04/24 17:17:30;;;;;;;;;;;;;;;21.22;34.59;94243.72;10484005;28;1961;-45
2022/04/24 17:22:30;;;;;;;;;;;;;;;21.22;34.78;94245.59;10482128;28;1916;-45
2022/04/24 17:27:31;;;;;;;;;;;;;;;21.25;34.65;94243.09;10484737;28;1772;-45
2022/04/24 17:32:32;;;;;;;;;;;;;;;21.25;34.45;94252.84;10485500;28;1839;-47
2022/04/24 17:37:33;;;;;;;;;;;;;;;21.28;34.23;94250.38;10488702;28;1910;-47
2022/04/24 17:42:34;;;;;;;;;;;;;;;21.28;34.21;94254.88;10478240;28;1796;-45
2022/04/24 17:47:35;;;;;;;;;;;;;;;21.25;34.35;94258.91;10486068;28;1749;-50
2022/04/24 17:52:36;;;;;;;;;;;;;;;21.25;34.36;94264.19;10487353;28;1784;-47
2022/04/24 17:57:36;;;;;;;;;;;;;;;21.24;34.22;94257.38;10486972;28;1910;-49
2022/04/24 18:02:37;;;;;;;;;;;;;;;21.18;34.31;94257.84;10483456;28;1824;-47
2022/04/24 18:07:39;;;;;;;;;;;;;;;21.20;34.27;94256.44;10482615;28;1781;-48
2022/04/24 18:12:40;;;;;;;;;;;;;;;21.24;34.46;94261.84;10484969;28;1725;-48
2022/04/24 18:17:40;;;;;;;;;;;;;;;21.24;34.41;94267.91;10488792;28;1906;-46
2022/04/24 18:22:41;;;;;;;;;;;;;;;21.23;34.36;94270.84;10482686;28;1755;-48
2022/04/24 18:27:41;;;;;;;;;;;;;;;21.41;34.41;94277.66;10489118;28;1851;-49
2022/04/24 18:32:42;;;;;;;;;;;;;;;21.47;34.80;94289.56;10490221;28;1560;-45
2022/04/24 18:37:42;;;;;;;;;;;;;;;21.46;34.51;94291.44;10478606;28;1967;-47
2022/04/24 18:42:46;;;;;;;;;;;;;;;21.50;34.70;94300.25;10482016;28;2458;-46
2022/04/24 18:47:46;;;;;;;;;;;;;;;21.49;34.75;94305.84;10480766;28;1588;-48
2022/04/24 18:52:47;;;;;;;;;;;;;;;21.49;34.85;94319.03;10481090;28;1489;-51
2022/04/24 18:57:49;;;;;;;;;;;;;;;21.47;34.95;94327.25;10479624;28;1902;-48
2022/04/24 19:02:49;;;;;;;;;;;;;;;21.43;34.95;94336.09;10486357;28;1487;-45
2022/04/24 19:07:51;;;;;;;;;;;;;;;21.41;35.04;94346.19;10480406;28;1446;-47
2022/04/24 19:12:53;;;;;;;;;;;;;;;21.35;35.27;94352.72;10477071;28;1555;-49
2022/04/24 19:17:53;;;;;;;;;;;;;;;21.33;34.95;94360.91;10476778;28;1971;-47
2022/04/24 19:22:53;;;;;;;;;;;;;;;21.31;35.03;94365.72;10467828;28;1495;-52
2022/04/24 19:27:54;;;;;;;;;;;;;;;21.31;35.08;94376.25;10478567;28;1693;-46
2022/04/24 19:32:54;;;;;;;;;;;;;;;21.29;35.15;94386.34;10484465;28;1430;-46
2022/04/24 19:37:54;;;;;;;;;;;;;;;21.29;35.10;94391.59;10480160;28;1914;-49
2022/04/24 19:42:55;;;;;;;;;;;;;;;21.29;35.19;94393.47;10481358;28;1834;-45
2022/04/24 19:53:14;;;;;;;;;;;;;;;21.31;35.03;94401.84;10474146;28;1560;-47
2022/04/24 19:58:14;;;;;;;;;;;;;;;21.30;35.15;94408.19;10480287;28;1975;-53
2022/04/24 20:03:14;;;;;;;;;;;;;;;21.34;35.05;94409.13;10474573;28;1612;-46
2022/04/24 20:08:15;;;;;;;;;;;;;;;21.34;35.31;94414.41;10482923;28;1478;-50
2022/04/24 20:13:15;;;;;;;;;;;;;;;21.36;34.84;94412.22;10474061;28;1466;-45
2022/04/24 20:18:19;;;;;;;;;;;;;;;21.32;34.90;94413.94;10460286;28;1910;-46
2022/04/24 20:23:19;;;;;;;;;;;;;;;21.32;35.07;94413.94;10473200;28;1462;-46
2022/04/24 20:28:19;;;;;;;;;;;;;;;21.42;35.36;94416.25;10453637;23;2331;-77
2022/04/24 20:33:20;;;;;;;;;;;;;;;21.47;35.04;94414.25;10406443;28;1959;-74
2022/04/24 20:38:21;;;;;;;;;;;;;;;21.41;35.16;94422.63;10454740;28;1907;-74
2022/04/24 20:43:23;;;;;;;;;;;;;;;21.38;35.03;94429.28;10422542;28;1891;-74
2022/04/24 20:48:24;;;;;;;;;;;;;;;21.39;35.14;94427.44;10454255;28;1881;-74
2022/04/24 20:53:24;;;;;;;;;;;;;;;21.46;35.04;94430.38;10454225;28;1864;-74
2022/04/24 20:58:25;;;;;;;;;;;;;;;21.46;34.97;94430.38;10424481;28;1902;-74
2022/04/24 21:03:25;;;;;;;;;;;;;;;21.43;34.92;94446.81;10447181;28;1919;-73
2022/04/24 21:08:26;;;;;;;;;;;;;;;21.38;35.25;94442.47;10454232;28;1900;-74
2022/04/24 21:13:27;;;;;;;;;;;;;;;21.34;35.12;94453.94;10417765;28;2059;-74
2022/04/24 21:18:27;;;;;;;;;;;;;;;21.33;34.92;94450.53;10420931;28;2176;-74
2022/04/24 21:23:27;;;;;;;;;;;;;;;21.30;34.83;94450.38;10427231;28;1834;-74
2022/04/24 21:28:28;;;;;;;;;;;;;;;21.28;34.97;94449.91;10438916;28;1872;-75
2022/04/24 21:33:28;;;;;;;;;;;;;;;21.24;34.72;94451.59;10427754;28;2096;-74
2022/04/24 21:38:28;;;;;;;;;;;;;;;21.23;34.93;94456.09;10427395;28;1965;-73
2022/04/24 21:43:29;;;;;;;;;;;;;;;21.22;34.82;94457.19;10438840;28;1831;-75
2022/04/24 21:48:31;;;;;;;;;;;;;;;21.18;34.71;94466.00;10458902;28;1817;-73
2022/04/24 21:53:32;;;;;;;;;;;;;;;21.15;34.94;94467.41;10430172;28;1819;-74
2022/04/24 21:58:34;;;;;;;;;;;;;;;21.18;34.81;94471.28;10443001;28;1918;-74
2022/04/24 22:08:53;;;;;;;;;;;;;;;21.17;34.85;94483.69;10436781;28;1936;-74
2022/04/24 22:13:53;;;;;;;;;;;;;;;21.18;34.70;94477.34;10440252;28;1836;-75
2022/04/24 22:18:54;;;;;;;;;;;;;;;21.27;34.80;94478.09;10426892;28;1902;-74
2022/04/24 22:29:13;;;;;;;;;;;;;;;21.31;34.67;94491.47;10440745;28;1826;-74
2022/04/24 22:34:14;;;;;;;;;;;;;;;21.24;34.78;94488.50;10438828;28;1905;-73
2022/04/24 22:39:14;;;;;;;;;;;;;;;21.18;34.82;94487.09;10440015;28;1987;-74
2022/04/24 22:44:15;;;;;;;;;;;;;;;21.15;34.83;94490.34;10424920;28;1649;-75
2022/04/24 22:49:15;;;;;;;;;;;;;;;21.17;34.92;94490.78;10436133;28;1797;-75
2022/04/24 22:54:16;;;;;;;;;;;;;;;21.19;34.96;94491.28;10411238;28;1816;-75
2022/04/24 22:59:17;;;;;;;;;;;;;;;21.18;34.94;94495.00;10439259;28;1962;-75
2022/04/24 23:04:17;;;;;;;;;;;;;;;21.16;34.89;94492.69;10439429;28;1841;-75
2022/04/24 23:09:18;;;;;;;;;;;;;;;21.27;34.89;94499.19;10424649;28;1818;-74
2022/04/24 23:14:18;;;;;;;;;;;;;;;21.24;34.99;94496.41;10424233;28;1946;-75
2022/04/24 23:19:20;;;;;;;;;;;;;;;21.29;35.36;94507.56;10404579;28;1910;-75
2022/04/24 23:24:32;;;;;;;;;;;;;;;21.31;35.33;94504.66;10454687;28;1747;-74
2022/04/24 23:29:42;;;;;;;;;;;;;;;21.23;35.08;94506.16;10422482;28;1855;-74
2022/04/24 23:34:44;;;;;;;;;;;;;;;21.24;35.08;94505.09;10441975;28;1798;-75
2022/04/24 23:39:44;;;;;;;;;;;;;;;21.27;35.15;94504.47;10434611;28;1936;-73
2022/04/24 23:44:44;;;;;;;;;;;;;;;21.23;35.09;94508.03;10412099;28;1828;-74
2022/04/24 23:49:45;;;;;;;;;;;;;;;21.19;35.01;94515.78;10427223;28;1831;-75
2022/04/24 23:54:46;;;;;;;;;;;;;;;21.18;35.00;94508.97;10438076;28;1858;-75
2022/04/24 23:59:46;;;;;;;;;;;;;;;21.19;34.94;94520.25;10453201;28;1971;-74
